Time;durP1;ratioP1;P1;durP2;ratioP2;P2;SDS_P1;SDS_P2;PMS_P1;PMS_P2;Temp;Humidity;BMP_temperature;BMP_pressure;BME280_temperature;BME280_humidity;BME280_pressure;Samples;Min_cycle;Max_cycle;Signal;HPM_P1;HPM_P2
2022/02/24 18:11:09;;;;;;;4.18;1.83;;;;;;;8.98;60.39;100423.09;5035112;28;20187;-85
2022/02/24 18:14:00;;;;;;;2.22;1.77;;;;;;;8.94;60.32;100421.13;5051610;23;20057;-80
2022/02/24 18:16:28;;;;;;;4.85;2.30;;;;;;;9.00;60.39;100414.81;5039293;28;20034;-80
2022/02/24 18:18:54;;;;;;;6.28;1.63;;;;;;;9.03;60.37;100411.66;5040891;28;20037;-79
2022/02/24 18:21:21;;;;;;;2.33;1.40;;;;;;;9.04;60.49;100406.06;5040651;28;20029;-80
2022/02/24 18:23:47;;;;;;;6.18;1.75;;;;;;;9.04;60.37;100400.72;5010647;28;20435;-79
2022/02/24 18:26:14;;;;;;;6.22;1.88;;;;;;;9.07;60.48;100402.09;5011964;28;20022;-79
2022/02/24 18:32:02;;;;;;;3.67;1.40;;;;;;;9.10;60.21;100393.56;5010589;28;20049;-80
2022/02/24 18:34:27;;;;;;;2.35;1.40;;;;;;;9.12;60.10;100387.97;5014649;28;20045;-80
2022/02/24 18:36:53;;;;;;;2.83;1.50;;;;;;;9.13;60.13;100393.06;5016505;28;20022;-82
2022/02/24 18:39:19;;;;;;;5.20;1.58;;;;;;;9.16;60.06;100375.75;5016791;28;20463;-81
2022/02/24 18:41:44;;;;;;;3.55;1.50;;;;;;;9.16;60.16;100373.88;5020246;28;20076;-82
2022/02/24 18:44:11;;;;;;;3.47;1.60;;;;;;;9.17;59.68;100372.84;5017984;28;20053;-82
2022/02/24 18:46:38;;;;;;;4.22;1.55;;;;;;;9.19;59.80;100370.72;5021801;28;20069;-81
2022/02/24 18:49:03;;;;;;;6.38;2.50;;;;;;;9.22;59.80;100372.88;5014845;28;20033;-84
2022/02/24 18:51:31;;;;;;;4.57;1.90;;;;;;;9.24;59.79;100361.94;5026185;28;20052;-84
2022/02/24 18:53:57;;;;;;;3.97;1.75;;;;;;;9.26;59.81;100362.50;5019704;28;20057;-84
2022/02/24 18:56:22;;;;;;;2.17;1.10;;;;;;;9.27;59.66;100346.22;5017070;28;20049;-84
2022/02/24 18:58:48;;;;;;;4.13;1.65;;;;;;;9.30;59.45;100351.06;5012829;28;20029;-86
2022/02/24 19:01:16;;;;;;;4.53;1.98;;;;;;;9.29;59.68;100344.09;5018498;28;20080;-83
2022/02/24 19:03:42;;;;;;;4.28;1.55;;;;;;;9.29;59.75;100344.09;5013541;28;20109;-85
2022/02/24 19:06:08;;;;;;;3.53;1.75;;;;;;;9.32;59.80;100348.13;5010709;28;20027;-82
2022/02/24 19:08:37;;;;;;;4.25;1.60;;;;;;;9.28;59.48;100337.13;5016236;28;20036;-84
2022/02/24 19:11:04;;;;;;;4.82;1.60;;;;;;;9.25;59.88;100342.97;5015343;28;20025;-82
2022/02/24 19:13:29;;;;;;;3.10;1.75;;;;;;;9.22;59.89;100335.47;5021147;28;20028;-84
2022/02/24 19:15:55;;;;;;;2.97;1.85;;;;;;;9.17;60.27;100332.75;5015756;28;20032;-83
2022/02/24 19:18:21;;;;;;;3.25;1.50;;;;;;;9.16;60.50;100333.81;5013417;28;20034;-84
2022/02/24 19:20:46;;;;;;;2.90;1.58;;;;;;;9.15;60.30;100332.16;5019493;28;20017;-85
2022/02/24 19:23:12;;;;;;;3.60;1.65;;;;;;;9.12;60.45;100326.50;5024225;28;20026;-85
2022/02/24 19:25:38;;;;;;;3.08;1.42;;;;;;;9.11;60.51;100320.34;5019463;28;20044;-84
2022/02/24 19:28:14;;;;;;;6.70;1.70;;;;;;;9.07;60.65;100317.38;5021226;28;20032;-84
2022/02/24 19:30:42;;;;;;;2.72;1.73;;;;;;;9.07;60.70;100324.59;5014847;28;20037;-84
2022/02/24 19:33:11;;;;;;;5.75;1.90;;;;;;;9.05;60.61;100322.16;5017612;28;20029;-82
2022/02/24 19:35:37;;;;;;;3.63;1.30;;;;;;;9.02;60.62;100314.66;5012975;28;20559;-82
2022/02/24 19:38:05;;;;;;;4.68;1.60;;;;;;;9.02;60.93;100305.81;5012663;28;20133;-81
2022/02/24 19:40:30;;;;;;;4.35;1.48;;;;;;;8.99;61.06;100300.97;5022587;28;20368;-82
2022/02/24 19:42:59;;;;;;;3.97;1.65;;;;;;;8.97;61.47;100293.19;5017562;28;20076;-82
2022/02/24 19:45:25;;;;;;;5.38;1.98;;;;;;;8.96;61.23;100304.13;5015912;28;20069;-81
2022/02/24 19:47:53;;;;;;;3.88;1.40;;;;;;;8.91;61.05;100299.53;5019617;28;20060;-81
2022/02/24 19:50:19;;;;;;;3.20;1.92;;;;;;;8.91;61.25;100296.03;5013100;28;20022;-81
2022/02/24 19:52:45;;;;;;;4.35;1.40;;;;;;;8.91;61.41;100304.06;5016099;28;20033;-81
2022/02/24 19:55:13;;;;;;;3.47;1.42;;;;;;;8.87;61.64;100297.59;5021763;28;20094;-82
2022/02/24 19:57:39;;;;;;;2.63;1.90;;;;;;;8.85;61.46;100295.19;5012528;28;20053;-82
2022/02/24 20:00:05;;;;;;;3.10;1.40;;;;;;;8.84;61.81;100287.41;5022613;28;20022;-82
2022/02/24 20:02:31;;;;;;;4.43;1.90;;;;;;;8.83;61.83;100280.47;5020868;28;20022;-82
2022/02/24 20:04:57;;;;;;;4.32;1.70;;;;;;;8.81;62.03;100275.38;5017510;28;20174;-81
2022/02/24 20:07:22;;;;;;;7.13;1.90;;;;;;;8.84;61.76;100279.41;5016238;28;20025;-81
2022/02/24 20:09:48;;;;;;;5.22;1.48;;;;;;;8.84;61.81;100282.06;5014161;28;20538;-81
2022/02/24 20:12:14;;;;;;;3.53;1.38;;;;;;;8.86;62.16;100269.28;5013348;28;20026;-81
2022/02/24 20:15:05;;;;;;;;;;;;;;;;;;;;;
2022/02/24 20:17:40;;;;;;;3.40;1.77;;;;;;;8.88;62.01;100261.81;5018305;28;20110;-81
2022/02/24 20:20:07;;;;;;;4.03;1.65;;;;;;;8.89;62.29;100258.09;5002333;28;20581;-80
2022/02/24 20:22:32;;;;;;;3.90;1.98;;;;;;;8.88;62.67;100259.16;5005880;28;20116;-81
2022/02/24 20:24:58;;;;;;;3.45;1.55;;;;;;;8.88;62.64;100261.81;5013467;28;20117;-81
2022/02/24 20:27:24;;;;;;;4.20;1.90;;;;;;;8.88;62.66;100251.13;5016341;28;20035;-81
2022/02/24 20:29:49;;;;;;;2.70;1.52;;;;;;;8.90;62.66;100243.66;5015349;28;20025;-81
2022/02/24 20:32:17;;;;;;;2.47;1.55;;;;;;;8.88;62.84;100243.13;5014083;28;20030;-81
2022/02/24 20:34:50;;;;;;;6.22;1.92;;;;;;;8.88;62.82;100253.81;5015480;28;20025;-81
2022/02/24 20:37:16;;;;;;;2.72;1.75;;;;;;;8.89;63.37;100244.72;5014789;28;20478;-81
2022/02/24 20:39:42;;;;;;;2.40;1.65;;;;;;;8.90;62.75;100238.31;5009833;28;20076;-81
2022/02/24 20:42:08;;;;;;;3.15;1.52;;;;;;;8.89;62.88;100237.53;5016817;28;20026;-81
2022/02/24 20:44:34;;;;;;;4.63;1.98;;;;;;;8.90;63.26;100235.66;5021916;28;20037;-81
2022/02/24 20:47:00;;;;;;;2.60;1.52;;;;;;;8.90;63.03;100238.31;5014336;28;20037;-81
2022/02/24 20:49:26;;;;;;;2.70;1.60;;;;;;;8.90;63.14;100249.81;5015142;28;20018;-81
2022/02/24 20:51:52;;;;;;;6.15;1.88;;;;;;;8.93;63.26;100252.00;5011780;28;20022;-81
2022/02/24 20:54:18;;;;;;;3.28;1.70;;;;;;;8.94;63.48;100276.84;5017242;28;20026;-82
2022/02/24 20:56:44;;;;;;;3.72;1.80;;;;;;;9.00;63.39;100289.22;5010191;28;20130;-82
2022/02/24 20:59:09;;;;;;;7.38;2.30;;;;;;;8.97;64.97;100316.41;5013743;28;20029;-81
2022/02/24 21:02:11;;;;;;;2.95;2.05;;;;;;;8.84;67.67;100335.50;5014279;28;20033;-85
2022/02/24 21:04:46;;;;;;;62.40;37.72;;;;;;;8.73;68.05;100338.03;5004258;28;20038;-85
2022/02/24 21:07:30;;;;;;;304.80;133.65;;;;;;;8.84;69.00;100335.50;5015711;28;20094;-84
2022/02/24 21:10:21;;;;;;;215.85;91.63;;;;;;;9.08;69.37;100350.25;5017007;28;20030;-84
2022/02/24 21:13:07;;;;;;;517.80;232.73;;;;;;;9.27;68.18;100354.22;5014024;28;20045;-84
2022/02/24 21:19:15;;;;;;;474.70;222.95;;;;;;;9.82;66.97;100397.91;4978662;28;20081;-85
2022/02/24 21:22:50;;;;;;;98.88;45.05;;;;;;;10.02;64.70;100421.41;5014680;28;20032;-85
2022/02/24 21:26:16;;;;;;;315.52;120.68;;;;;;;10.12;62.52;100440.25;5004144;28;20050;-84
2022/02/24 21:29:22;;;;;;;144.13;62.13;;;;;;;10.24;62.40;100454.34;5005182;28;20054;-85
2022/02/24 21:32:37;;;;;;;;;;;;;;;;;;;;;
2022/02/24 21:39:08;;;;;;;42.53;17.38;;;;;;;9.80;60.69;100507.06;5005550;28;20061;-84
2022/02/24 21:41:35;;;;;;;10.18;4.30;;;;;;;9.90;62.04;100502.66;4917718;29;20151;-84
2022/02/24 21:44:01;;;;;;;5.47;2.65;;;;;;;9.86;62.07;100498.84;5007827;28;20048;-85
2022/02/24 21:46:27;;;;;;;3.20;1.65;;;;;;;9.73;62.09;100499.22;5016660;28;20399;-85
2022/02/24 21:48:53;;;;;;;1.40;0.80;;;;;;;9.57;62.29;100516.13;5025686;28;20021;-85
2022/02/24 21:51:37;;;;;;;;;;;;;;;;;;;;;
2022/02/24 21:54:03;;;;;;;1.25;0.45;;;;;;;9.11;62.61;100523.47;5025526;28;20101;-85
2022/02/24 21:56:32;;;;;;;0.30;0.30;;;;;;;8.84;62.99;100531.34;5014625;28;20046;-85
2022/02/24 21:58:57;;;;;;;0.73;0.47;;;;;;;8.71;63.23;100528.97;5021819;28;20064;-85
2022/02/24 22:01:26;;;;;;;0.38;0.30;;;;;;;8.51;62.74;100541.97;5020526;28;20021;-85
2022/02/24 22:03:52;;;;;;;1.27;0.45;;;;;;;8.22;63.12;100557.09;5018516;28;20069;-85
2022/02/24 22:06:18;;;;;;;1.33;0.63;;;;;;;7.99;63.35;100574.81;5019358;28;20464;-84
2022/02/24 22:08:46;;;;;;;0.50;0.30;;;;;;;7.99;63.81;100587.34;5018566;28;20123;-85
2022/02/24 22:11:12;;;;;;;2.83;0.40;;;;;;;7.96;63.85;100585.97;5019248;28;20030;-85
2022/02/24 22:13:37;;;;;;;2.22;0.50;;;;;;;7.85;64.90;100603.59;5020692;28;20037;-84
2022/02/24 22:16:03;;;;;;;1.38;0.60;;;;;;;7.76;65.35;100606.84;5018471;28;20080;-85
2022/02/24 22:18:29;;;;;;;0.65;0.50;;;;;;;7.64;65.75;100604.19;5018698;28;20021;-85
2022/02/24 22:20:54;;;;;;;1.10;0.40;;;;;;;7.52;66.05;100606.84;5009728;28;20033;-85
2022/02/24 22:23:20;;;;;;;0.40;0.38;;;;;;;7.51;65.84;100615.88;5023958;28;20094;-85
2022/02/24 22:25:46;;;;;;;0.93;0.52;;;;;;;7.47;66.09;100636.03;5023725;28;20099;-85
2022/02/24 22:28:14;;;;;;;1.10;0.30;;;;;;;7.38;66.39;100623.31;5020883;28;20022;-84
2022/02/24 22:30:41;;;;;;;0.60;0.30;;;;;;;7.28;66.47;100642.50;5016210;28;20111;-85
2022/02/24 22:33:07;;;;;;;0.45;0.43;;;;;;;7.28;66.18;100642.50;5021395;28;20017;-84
2022/02/24 22:35:32;;;;;;;1.27;0.35;;;;;;;7.27;66.55;100655.03;5020539;28;20029;-85
2022/02/24 22:37:58;;;;;;;0.38;0.30;;;;;;;7.16;66.55;100661.13;5017476;28;20036;-85
2022/02/24 22:40:25;;;;;;;0.13;0.13;;;;;;;7.08;66.19;100664.13;5019354;28;20022;-85
2022/02/24 22:42:51;;;;;;;0.80;0.30;;;;;;;7.08;66.68;100642.00;5017920;28;20380;-84
2022/02/24 22:45:16;;;;;;;0.30;0.30;;;;;;;7.08;66.31;100650.81;5021028;28;20129;-85
2022/02/24 22:47:42;;;;;;;0.30;0.30;;;;;;;7.07;66.35;100653.69;5023930;28;20081;-85
2022/02/24 22:50:08;;;;;;;1.27;0.20;;;;;;;6.98;66.60;100630.03;5026260;28;20034;-85
2022/02/24 22:52:33;;;;;;;0.20;0.20;;;;;;;6.89;66.38;100644.72;5013299;28;20033;-85
2022/02/24 22:54:59;;;;;;;0.80;0.30;;;;;;;6.84;66.96;100651.75;5021499;28;20021;-85
2022/02/24 22:57:25;;;;;;;0.25;0.20;;;;;;;6.77;68.21;100657.16;5017286;28;20018;-85
2022/02/24 22:59:50;;;;;;;0.20;0.20;;;;;;;6.65;68.62;100669.63;5012802;28;20026;-85
2022/02/24 23:02:16;;;;;;;0.75;0.45;;;;;;;6.62;68.92;100699.34;5022119;28;20479;-84
2022/02/24 23:07:29;;;;;;;1.33;0.35;;;;;;;6.54;69.33;100702.31;5019671;28;20518;-85
2022/02/24 23:09:54;;;;;;;0.22;0.20;;;;;;;6.50;69.94;100714.44;5002413;28;20030;-85
2022/02/24 23:12:20;;;;;;;0.40;0.30;;;;;;;6.47;69.63;100720.22;5019475;28;20113;-85
2022/02/24 23:14:46;;;;;;;0.30;0.30;;;;;;;6.43;70.42;100711.84;4998954;28;20029;-85
2022/02/24 23:17:11;;;;;;;0.40;0.40;;;;;;;6.43;69.79;100713.69;4999813;28;20493;-84
2022/02/24 23:19:37;;;;;;;0.35;0.30;;;;;;;6.35;70.00;100702.31;5019486;28;20040;-85
2022/02/24 23:22:02;;;;;;;0.38;0.30;;;;;;;6.30;70.20;100720.78;5019324;28;20075;-84
2022/02/24 23:24:28;;;;;;;0.38;0.38;;;;;;;6.23;70.49;100724.53;5021271;28;20024;-85
2022/02/24 23:26:53;;;;;;;0.25;0.25;;;;;;;6.19;70.45;100729.50;5017305;28;20049;-85
2022/02/24 23:29:19;;;;;;;0.35;0.30;;;;;;;6.15;70.91;100738.13;5018755;28;20109;-85
2022/02/24 23:31:44;;;;;;;0.20;0.20;;;;;;;6.07;71.34;100734.69;5014865;28;20041;-85
2022/02/24 23:34:10;;;;;;;0.20;0.20;;;;;;;6.02;71.24;100734.56;5019624;28;20033;-84
2022/02/24 23:36:36;;;;;;;0.30;0.30;;;;;;;6.02;71.35;100737.22;5017864;28;20017;-84
2022/02/24 23:39:01;;;;;;;0.40;0.40;;;;;;;6.06;71.24;100741.06;5001474;28;20494;-85
2022/02/24 23:41:29;;;;;;;0.52;0.30;;;;;;;6.11;70.93;100743.09;5023265;28;20475;-84
2022/02/24 23:43:54;;;;;;;0.73;0.50;;;;;;;6.14;70.98;100750.63;5017320;28;20026;-85
2022/02/24 23:46:20;;;;;;;0.47;0.35;;;;;;;6.16;71.10;100761.84;5009931;28;20053;-84
2022/02/24 23:48:46;;;;;;;0.38;0.38;;;;;;;6.15;71.57;100762.06;5021506;28;20033;-84
2022/02/24 23:51:11;;;;;;;0.57;0.38;;;;;;;6.18;71.27;100773.09;5019400;28;20109;-85
2022/02/24 23:53:37;;;;;;;0.60;0.60;;;;;;;6.05;71.64;100787.31;5014436;28;20045;-84
2022/02/24 23:56:03;;;;;;;0.50;0.50;;;;;;;5.88;71.66;100791.50;5022085;28;20081;-85
2022/02/24 23:58:28;;;;;;;0.43;0.43;;;;;;;5.77;71.91;100800.19;5013810;28;20025;-85
